sensor_id;sensor_type;location;lat;lon;timestamp;P1;durP1;ratioP1;P2;durP2;ratioP2
53519;SDS011;39397;53.204;5.778;2023-12-28T00:00:46;10.73;;;2.75;;
53519;SDS011;39397;53.204;5.778;2023-12-28T00:03:13;17.63;;;3.30;;
53519;SDS011;39397;53.204;5.778;2023-12-28T00:05:38;15.13;;;3.15;;
53519;SDS011;39397;53.204;5.778;2023-12-28T00:08:04;16.60;;;3.40;;
53519;SDS011;39397;53.204;5.778;2023-12-28T00:10:30;15.55;;;4.35;;
53519;SDS011;39397;53.204;5.778;2023-12-28T00:12:56;18.13;;;3.40;;
53519;SDS011;39397;53.204;5.778;2023-12-28T00:15:22;18.27;;;3.08;;
53519;SDS011;39397;53.204;5.778;2023-12-28T00:17:47;17.45;;;3.45;;
53519;SDS011;39397;53.204;5.778;2023-12-28T00:20:13;17.33;;;3.58;;
53519;SDS011;39397;53.204;5.778;2023-12-28T00:22:39;20.45;;;3.53;;
53519;SDS011;39397;53.204;5.778;2023-12-28T00:25:05;26.00;;;3.35;;
53519;SDS011;39397;53.204;5.778;2023-12-28T00:27:31;20.63;;;3.40;;
53519;SDS011;39397;53.204;5.778;2023-12-28T00:29:59;21.48;;;4.07;;
53519;SDS011;39397;53.204;5.778;2023-12-28T00:32:25;26.67;;;3.78;;
53519;SDS011;39397;53.204;5.778;2023-12-28T00:34:51;26.58;;;4.28;;
53519;SDS011;39397;53.204;5.778;2023-12-28T00:37:16;21.10;;;4.30;;
53519;SDS011;39397;53.204;5.778;2023-12-28T00:39:42;23.83;;;4.15;;
53519;SDS011;39397;53.204;5.778;2023-12-28T00:42:09;18.90;;;3.60;;
53519;SDS011;39397;53.204;5.778;2023-12-28T00:44:35;17.17;;;3.53;;
53519;SDS011;39397;53.204;5.778;2023-12-28T00:47:01;22.50;;;3.78;;
53519;SDS011;39397;53.204;5.778;2023-12-28T00:49:27;19.85;;;3.70;;
53519;SDS011;39397;53.204;5.778;2023-12-28T00:51:52;19.48;;;4.47;;
53519;SDS011;39397;53.204;5.778;2023-12-28T00:54:18;19.55;;;3.90;;
53519;SDS011;39397;53.204;5.778;2023-12-28T00:56:44;20.85;;;4.15;;
53519;SDS011;39397;53.204;5.778;2023-12-28T00:59:10;27.52;;;4.30;;
53519;SDS011;39397;53.204;5.778;2023-12-28T01:01:35;25.35;;;4.00;;
53519;SDS011;39397;53.204;5.778;2023-12-28T01:04:01;19.85;;;3.53;;
53519;SDS011;39397;53.204;5.778;2023-12-28T01:06:27;19.13;;;3.40;;
53519;SDS011;39397;53.204;5.778;2023-12-28T01:08:57;22.33;;;3.78;;
53519;SDS011;39397;53.204;5.778;2023-12-28T01:11:22;17.05;;;4.03;;
53519;SDS011;39397;53.204;5.778;2023-12-28T01:13:48;28.13;;;5.15;;
53519;SDS011;39397;53.204;5.778;2023-12-28T01:16:14;22.98;;;4.20;;
53519;SDS011;39397;53.204;5.778;2023-12-28T01:18:39;25.50;;;3.58;;
53519;SDS011;39397;53.204;5.778;2023-12-28T01:21:05;22.10;;;3.92;;
53519;SDS011;39397;53.204;5.778;2023-12-28T01:23:31;28.98;;;5.22;;
53519;SDS011;39397;53.204;5.778;2023-12-28T01:25:58;25.38;;;5.00;;
53519;SDS011;39397;53.204;5.778;2023-12-28T01:28:25;25.48;;;3.08;;
53519;SDS011;39397;53.204;5.778;2023-12-28T01:30:50;24.00;;;4.60;;
53519;SDS011;39397;53.204;5.778;2023-12-28T01:33:16;28.25;;;5.65;;
53519;SDS011;39397;53.204;5.778;2023-12-28T01:35:42;23.27;;;3.50;;
53519;SDS011;39397;53.204;5.778;2023-12-28T01:38:08;28.73;;;4.75;;
53519;SDS011;39397;53.204;5.778;2023-12-28T01:40:33;25.20;;;4.30;;
53519;SDS011;39397;53.204;5.778;2023-12-28T01:42:59;28.67;;;5.28;;
53519;SDS011;39397;53.204;5.778;2023-12-28T01:45:25;26.25;;;4.88;;
53519;SDS011;39397;53.204;5.778;2023-12-28T01:47:52;21.48;;;4.57;;
53519;SDS011;39397;53.204;5.778;2023-12-28T01:50:20;24.15;;;4.72;;
53519;SDS011;39397;53.204;5.778;2023-12-28T01:52:46;21.23;;;4.13;;
53519;SDS011;39397;53.204;5.778;2023-12-28T01:55:13;29.52;;;4.13;;
53519;SDS011;39397;53.204;5.778;2023-12-28T01:57:40;25.15;;;4.30;;
53519;SDS011;39397;53.204;5.778;2023-12-28T02:00:06;30.88;;;4.80;;
53519;SDS011;39397;53.204;5.778;2023-12-28T02:02:32;16.70;;;3.80;;
53519;SDS011;39397;53.204;5.778;2023-12-28T02:04:59;20.15;;;4.28;;
53519;SDS011;39397;53.204;5.778;2023-12-28T02:07:25;23.23;;;4.22;;
53519;SDS011;39397;53.204;5.778;2023-12-28T02:09:51;22.70;;;4.50;;
53519;SDS011;39397;53.204;5.778;2023-12-28T02:12:17;28.52;;;4.95;;
53519;SDS011;39397;53.204;5.778;2023-12-28T02:14:42;21.92;;;3.40;;
53519;SDS011;39397;53.204;5.778;2023-12-28T02:20:02;20.67;;;4.00;;
53519;SDS011;39397;53.204;5.778;2023-12-28T02:22:31;23.38;;;4.07;;
53519;SDS011;39397;53.204;5.778;2023-12-28T02:27:36;15.45;;;3.03;;
53519;SDS011;39397;53.204;5.778;2023-12-28T02:30:03;23.23;;;4.47;;
53519;SDS011;39397;53.204;5.778;2023-12-28T02:35:40;20.38;;;3.10;;
53519;SDS011;39397;53.204;5.778;2023-12-28T02:38:09;26.60;;;4.88;;
53519;SDS011;39397;53.204;5.778;2023-12-28T02:40:37;20.58;;;4.28;;
53519;SDS011;39397;53.204;5.778;2023-12-28T02:43:04;23.80;;;4.18;;
53519;SDS011;39397;53.204;5.778;2023-12-28T02:45:31;23.77;;;4.05;;
53519;SDS011;39397;53.204;5.778;2023-12-28T02:47:57;20.33;;;2.92;;
53519;SDS011;39397;53.204;5.778;2023-12-28T02:50:23;19.58;;;4.18;;
53519;SDS011;39397;53.204;5.778;2023-12-28T02:52:48;16.10;;;3.00;;
53519;SDS011;39397;53.204;5.778;2023-12-28T02:55:14;18.23;;;3.67;;
53519;SDS011;39397;53.204;5.778;2023-12-28T02:57:40;17.48;;;2.78;;
53519;SDS011;39397;53.204;5.778;2023-12-28T03:00:05;18.75;;;3.00;;
53519;SDS011;39397;53.204;5.778;2023-12-28T03:02:34;25.70;;;3.88;;
53519;SDS011;39397;53.204;5.778;2023-12-28T03:05:06;21.15;;;3.10;;
53519;SDS011;39397;53.204;5.778;2023-12-28T03:07:32;17.63;;;3.22;;
53519;SDS011;39397;53.204;5.778;2023-12-28T03:09:59;13.27;;;3.38;;
53519;SDS011;39397;53.204;5.778;2023-12-28T03:12:25;18.88;;;3.83;;
53519;SDS011;39397;53.204;5.778;2023-12-28T03:14:51;17.48;;;3.33;;
53519;SDS011;39397;53.204;5.778;2023-12-28T03:17:17;13.40;;;3.17;;
53519;SDS011;39397;53.204;5.778;2023-12-28T03:19:43;17.98;;;3.40;;
53519;SDS011;39397;53.204;5.778;2023-12-28T03:22:08;19.13;;;2.80;;
53519;SDS011;39397;53.204;5.778;2023-12-28T03:24:36;16.00;;;3.03;;
53519;SDS011;39397;53.204;5.778;2023-12-28T03:27:02;16.23;;;3.38;;
53519;SDS011;39397;53.204;5.778;2023-12-28T03:29:28;23.05;;;4.28;;
53519;SDS011;39397;53.204;5.778;2023-12-28T03:31:54;17.05;;;2.83;;
53519;SDS011;39397;53.204;5.778;2023-12-28T03:34:20;18.77;;;3.88;;
53519;SDS011;39397;53.204;5.778;2023-12-28T03:36:47;18.27;;;3.50;;
53519;SDS011;39397;53.204;5.778;2023-12-28T03:39:12;18.35;;;3.55;;
53519;SDS011;39397;53.204;5.778;2023-12-28T03:41:38;16.00;;;3.53;;
53519;SDS011;39397;53.204;5.778;2023-12-28T03:44:04;19.75;;;2.80;;
53519;SDS011;39397;53.204;5.778;2023-12-28T03:46:30;22.70;;;3.88;;
53519;SDS011;39397;53.204;5.778;2023-12-28T03:48:55;16.23;;;3.63;;
53519;SDS011;39397;53.204;5.778;2023-12-28T03:51:21;21.20;;;3.58;;
53519;SDS011;39397;53.204;5.778;2023-12-28T03:53:47;19.73;;;2.88;;
53519;SDS011;39397;53.204;5.778;2023-12-28T03:56:23;18.02;;;2.80;;
53519;SDS011;39397;53.204;5.778;2023-12-28T03:58:53;14.20;;;2.45;;
53519;SDS011;39397;53.204;5.778;2023-12-28T04:01:20;16.27;;;3.63;;
53519;SDS011;39397;53.204;5.778;2023-12-28T04:03:46;16.13;;;3.55;;
53519;SDS011;39397;53.204;5.778;2023-12-28T04:06:12;19.55;;;4.90;;
53519;SDS011;39397;53.204;5.778;2023-12-28T04:08:39;16.00;;;2.78;;
53519;SDS011;39397;53.204;5.778;2023-12-28T04:11:08;16.80;;;3.20;;
53519;SDS011;39397;53.204;5.778;2023-12-28T04:13:34;15.68;;;2.90;;
53519;SDS011;39397;53.204;5.778;2023-12-28T04:16:00;15.60;;;3.85;;
53519;SDS011;39397;53.204;5.778;2023-12-28T04:18:26;18.95;;;2.70;;
53519;SDS011;39397;53.204;5.778;2023-12-28T04:20:52;17.92;;;3.40;;
53519;SDS011;39397;53.204;5.778;2023-12-28T04:23:18;14.02;;;3.17;;
53519;SDS011;39397;53.204;5.778;2023-12-28T04:25:44;21.35;;;3.47;;
53519;SDS011;39397;53.204;5.778;2023-12-28T04:28:09;21.63;;;3.22;;
53519;SDS011;39397;53.204;5.778;2023-12-28T04:30:35;21.77;;;4.30;;
53519;SDS011;39397;53.204;5.778;2023-12-28T04:33:01;19.85;;;3.38;;
53519;SDS011;39397;53.204;5.778;2023-12-28T04:35:28;22.95;;;4.15;;
53519;SDS011;39397;53.204;5.778;2023-12-28T04:37:53;20.63;;;3.90;;
53519;SDS011;39397;53.204;5.778;2023-12-28T04:40:19;20.27;;;3.33;;
53519;SDS011;39397;53.204;5.778;2023-12-28T04:42:45;21.02;;;4.18;;
53519;SDS011;39397;53.204;5.778;2023-12-28T04:45:11;19.88;;;3.63;;
53519;SDS011;39397;53.204;5.778;2023-12-28T04:47:37;20.35;;;3.53;;
53519;SDS011;39397;53.204;5.778;2023-12-28T04:50:04;21.35;;;3.72;;
53519;SDS011;39397;53.204;5.778;2023-12-28T04:52:30;21.15;;;3.40;;
53519;SDS011;39397;53.204;5.778;2023-12-28T04:54:56;22.02;;;3.25;;
53519;SDS011;39397;53.204;5.778;2023-12-28T04:57:22;25.27;;;3.88;;
53519;SDS011;39397;53.204;5.778;2023-12-28T04:59:50;17.05;;;3.47;;
53519;SDS011;39397;53.204;5.778;2023-12-28T05:02:16;17.90;;;3.67;;
53519;SDS011;39397;53.204;5.778;2023-12-28T05:04:42;22.38;;;3.05;;
53519;SDS011;39397;53.204;5.778;2023-12-28T05:07:08;23.75;;;4.20;;
53519;SDS011;39397;53.204;5.778;2023-12-28T05:09:33;22.50;;;5.32;;
53519;SDS011;39397;53.204;5.778;2023-12-28T05:12:00;21.83;;;3.67;;
53519;SDS011;39397;53.204;5.778;2023-12-28T05:14:25;25.95;;;4.53;;
53519;SDS011;39397;53.204;5.778;2023-12-28T05:16:51;23.58;;;4.10;;
53519;SDS011;39397;53.204;5.778;2023-12-28T05:19:17;23.08;;;3.97;;
53519;SDS011;39397;53.204;5.778;2023-12-28T05:21:43;26.45;;;4.63;;
53519;SDS011;39397;53.204;5.778;2023-12-28T05:24:08;23.30;;;4.57;;
53519;SDS011;39397;53.204;5.778;2023-12-28T05:26:34;16.17;;;3.58;;
53519;SDS011;39397;53.204;5.778;2023-12-28T05:29:00;22.35;;;4.57;;
53519;SDS011;39397;53.204;5.778;2023-12-28T05:31:26;20.95;;;3.60;;
53519;SDS011;39397;53.204;5.778;2023-12-28T05:33:52;27.25;;;4.30;;
53519;SDS011;39397;53.204;5.778;2023-12-28T05:36:17;36.65;;;5.05;;
53519;SDS011;39397;53.204;5.778;2023-12-28T05:38:43;20.73;;;4.30;;
53519;SDS011;39397;53.204;5.778;2023-12-28T05:41:09;21.67;;;3.80;;
53519;SDS011;39397;53.204;5.778;2023-12-28T05:43:36;23.13;;;4.25;;
53519;SDS011;39397;53.204;5.778;2023-12-28T05:46:02;24.73;;;4.05;;
53519;SDS011;39397;53.204;5.778;2023-12-28T05:48:27;23.58;;;3.90;;
53519;SDS011;39397;53.204;5.778;2023-12-28T05:50:53;19.95;;;4.05;;
53519;SDS011;39397;53.204;5.778;2023-12-28T05:53:19;28.33;;;4.60;;
53519;SDS011;39397;53.204;5.778;2023-12-28T05:55:44;26.50;;;4.20;;
53519;SDS011;39397;53.204;5.778;2023-12-28T05:58:10;27.92;;;4.95;;
53519;SDS011;39397;53.204;5.778;2023-12-28T06:00:36;19.05;;;4.05;;
53519;SDS011;39397;53.204;5.778;2023-12-28T06:03:03;21.45;;;5.30;;
53519;SDS011;39397;53.204;5.778;2023-12-28T06:05:29;32.20;;;5.05;;
53519;SDS011;39397;53.204;5.778;2023-12-28T06:07:55;20.33;;;3.80;;
53519;SDS011;39397;53.204;5.778;2023-12-28T06:10:21;25.77;;;4.43;;
53519;SDS011;39397;53.204;5.778;2023-12-28T06:12:47;30.60;;;5.03;;
53519;SDS011;39397;53.204;5.778;2023-12-28T06:15:13;21.92;;;4.53;;
53519;SDS011;39397;53.204;5.778;2023-12-28T06:17:39;33.47;;;5.15;;
53519;SDS011;39397;53.204;5.778;2023-12-28T06:20:04;20.45;;;4.40;;
53519;SDS011;39397;53.204;5.778;2023-12-28T06:22:31;22.08;;;4.03;;
53519;SDS011;39397;53.204;5.778;2023-12-28T06:24:57;27.80;;;4.47;;
53519;SDS011;39397;53.204;5.778;2023-12-28T06:27:22;22.10;;;4.28;;
53519;SDS011;39397;53.204;5.778;2023-12-28T06:29:51;22.30;;;4.70;;
53519;SDS011;39397;53.204;5.778;2023-12-28T06:32:16;23.80;;;5.63;;
53519;SDS011;39397;53.204;5.778;2023-12-28T06:34:42;27.98;;;4.97;;
53519;SDS011;39397;53.204;5.778;2023-12-28T06:37:08;22.05;;;4.90;;
53519;SDS011;39397;53.204;5.778;2023-12-28T06:39:33;20.50;;;5.38;;
53519;SDS011;39397;53.204;5.778;2023-12-28T06:41:59;21.38;;;4.15;;
53519;SDS011;39397;53.204;5.778;2023-12-28T06:44:25;29.65;;;6.00;;
53519;SDS011;39397;53.204;5.778;2023-12-28T06:46:53;24.70;;;5.60;;
53519;SDS011;39397;53.204;5.778;2023-12-28T06:49:19;28.63;;;4.95;;
53519;SDS011;39397;53.204;5.778;2023-12-28T06:51:47;31.13;;;5.78;;
53519;SDS011;39397;53.204;5.778;2023-12-28T06:54:18;34.28;;;5.28;;
53519;SDS011;39397;53.204;5.778;2023-12-28T06:56:44;31.40;;;6.03;;
53519;SDS011;39397;53.204;5.778;2023-12-28T06:59:10;29.15;;;4.60;;
53519;SDS011;39397;53.204;5.778;2023-12-28T07:01:39;25.63;;;5.30;;
53519;SDS011;39397;53.204;5.778;2023-12-28T07:04:05;26.90;;;4.95;;
53519;SDS011;39397;53.204;5.778;2023-12-28T07:06:30;31.00;;;6.65;;
53519;SDS011;39397;53.204;5.778;2023-12-28T07:08:56;31.25;;;5.22;;
53519;SDS011;39397;53.204;5.778;2023-12-28T07:11:25;28.45;;;4.80;;
53519;SDS011;39397;53.204;5.778;2023-12-28T07:13:53;24.15;;;5.05;;
53519;SDS011;39397;53.204;5.778;2023-12-28T07:16:19;33.53;;;5.90;;
53519;SDS011;39397;53.204;5.778;2023-12-28T07:18:44;32.90;;;5.70;;
53519;SDS011;39397;53.204;5.778;2023-12-28T07:21:13;38.35;;;5.80;;
53519;SDS011;39397;53.204;5.778;2023-12-28T07:23:38;31.70;;;5.53;;
53519;SDS011;39397;53.204;5.778;2023-12-28T07:26:04;33.75;;;5.22;;
53519;SDS011;39397;53.204;5.778;2023-12-28T07:28:30;25.92;;;5.38;;
53519;SDS011;39397;53.204;5.778;2023-12-28T07:30:56;30.85;;;6.35;;
53519;SDS011;39397;53.204;5.778;2023-12-28T07:33:22;31.90;;;6.20;;
53519;SDS011;39397;53.204;5.778;2023-12-28T07:35:48;29.20;;;5.22;;
53519;SDS011;39397;53.204;5.778;2023-12-28T07:38:13;38.83;;;8.35;;
53519;SDS011;39397;53.204;5.778;2023-12-28T07:40:40;38.28;;;6.55;;
53519;SDS011;39397;53.204;5.778;2023-12-28T07:43:06;34.03;;;5.90;;
53519;SDS011;39397;53.204;5.778;2023-12-28T07:45:32;39.22;;;6.82;;
53519;SDS011;39397;53.204;5.778;2023-12-28T07:48:01;34.25;;;5.90;;
53519;SDS011;39397;53.204;5.778;2023-12-28T07:50:27;37.72;;;5.97;;
53519;SDS011;39397;53.204;5.778;2023-12-28T07:52:53;37.67;;;6.55;;
53519;SDS011;39397;53.204;5.778;2023-12-28T07:55:18;38.63;;;6.25;;
53519;SDS011;39397;53.204;5.778;2023-12-28T07:57:44;31.80;;;5.95;;
53519;SDS011;39397;53.204;5.778;2023-12-28T08:00:11;37.10;;;6.07;;
53519;SDS011;39397;53.204;5.778;2023-12-28T08:02:37;35.35;;;6.78;;
53519;SDS011;39397;53.204;5.778;2023-12-28T08:05:03;36.47;;;6.20;;
53519;SDS011;39397;53.204;5.778;2023-12-28T08:07:29;41.22;;;6.95;;
53519;SDS011;39397;53.204;5.778;2023-12-28T08:09:55;37.92;;;8.00;;
53519;SDS011;39397;53.204;5.778;2023-12-28T08:12:21;39.47;;;6.72;;
53519;SDS011;39397;53.204;5.778;2023-12-28T08:14:47;27.23;;;6.95;;
53519;SDS011;39397;53.204;5.778;2023-12-28T08:17:12;40.88;;;7.40;;
53519;SDS011;39397;53.204;5.778;2023-12-28T08:19:38;34.05;;;6.40;;
53519;SDS011;39397;53.204;5.778;2023-12-28T08:22:04;30.98;;;6.30;;
53519;SDS011;39397;53.204;5.778;2023-12-28T08:24:30;37.40;;;6.70;;
53519;SDS011;39397;53.204;5.778;2023-12-28T08:26:57;34.70;;;7.20;;
53519;SDS011;39397;53.204;5.778;2023-12-28T08:29:25;37.67;;;7.10;;
53519;SDS011;39397;53.204;5.778;2023-12-28T08:31:51;33.25;;;5.97;;
53519;SDS011;39397;53.204;5.778;2023-12-28T08:34:17;40.08;;;6.65;;
53519;SDS011;39397;53.204;5.778;2023-12-28T08:36:43;41.72;;;7.70;;
53519;SDS011;39397;53.204;5.778;2023-12-28T08:39:09;31.08;;;6.68;;
53519;SDS011;39397;53.204;5.778;2023-12-28T08:41:34;29.95;;;7.13;;
53519;SDS011;39397;53.204;5.778;2023-12-28T08:44:00;37.28;;;8.30;;
53519;SDS011;39397;53.204;5.778;2023-12-28T08:46:26;40.55;;;6.57;;
53519;SDS011;39397;53.204;5.778;2023-12-28T08:48:52;36.67;;;6.93;;
53519;SDS011;39397;53.204;5.778;2023-12-28T08:51:18;40.92;;;9.00;;
53519;SDS011;39397;53.204;5.778;2023-12-28T08:53:43;35.75;;;6.25;;
53519;SDS011;39397;53.204;5.778;2023-12-28T08:56:13;29.02;;;6.35;;
53519;SDS011;39397;53.204;5.778;2023-12-28T08:58:41;32.17;;;5.90;;
53519;SDS011;39397;53.204;5.778;2023-12-28T09:01:09;35.13;;;7.20;;
53519;SDS011;39397;53.204;5.778;2023-12-28T09:03:54;40.92;;;6.47;;
53519;SDS011;39397;53.204;5.778;2023-12-28T09:06:20;41.45;;;8.07;;
53519;SDS011;39397;53.204;5.778;2023-12-28T09:08:50;34.63;;;6.93;;
53519;SDS011;39397;53.204;5.778;2023-12-28T09:11:17;46.17;;;6.60;;
53519;SDS011;39397;53.204;5.778;2023-12-28T09:13:44;39.05;;;8.18;;
53519;SDS011;39397;53.204;5.778;2023-12-28T09:16:13;38.42;;;6.38;;
53519;SDS011;39397;53.204;5.778;2023-12-28T09:18:40;37.33;;;7.65;;
53519;SDS011;39397;53.204;5.778;2023-12-28T09:21:07;40.60;;;7.78;;
53519;SDS011;39397;53.204;5.778;2023-12-28T09:23:34;31.95;;;6.13;;
53519;SDS011;39397;53.204;5.778;2023-12-28T09:26:00;30.05;;;7.13;;
53519;SDS011;39397;53.204;5.778;2023-12-28T09:28:30;35.88;;;7.63;;
53519;SDS011;39397;53.204;5.778;2023-12-28T09:31:00;36.95;;;5.68;;
53519;SDS011;39397;53.204;5.778;2023-12-28T09:33:26;33.70;;;5.85;;
53519;SDS011;39397;53.204;5.778;2023-12-28T09:35:52;45.13;;;6.90;;
53519;SDS011;39397;53.204;5.778;2023-12-28T09:38:18;34.00;;;6.88;;
53519;SDS011;39397;53.204;5.778;2023-12-28T09:40:44;35.75;;;6.57;;
53519;SDS011;39397;53.204;5.778;2023-12-28T09:43:18;34.30;;;5.35;;
53519;SDS011;39397;53.204;5.778;2023-12-28T09:45:53;35.22;;;6.35;;
53519;SDS011;39397;53.204;5.778;2023-12-28T09:48:22;33.75;;;6.13;;
53519;SDS011;39397;53.204;5.778;2023-12-28T09:50:51;41.38;;;6.72;;
53519;SDS011;39397;53.204;5.778;2023-12-28T09:53:20;38.28;;;5.85;;
53519;SDS011;39397;53.204;5.778;2023-12-28T09:55:48;29.00;;;5.57;;
53519;SDS011;39397;53.204;5.778;2023-12-28T09:58:17;32.72;;;5.93;;
53519;SDS011;39397;53.204;5.778;2023-12-28T10:00:44;31.08;;;5.88;;
53519;SDS011;39397;53.204;5.778;2023-12-28T10:03:12;36.53;;;6.45;;
53519;SDS011;39397;53.204;5.778;2023-12-28T10:05:38;36.13;;;6.55;;
53519;SDS011;39397;53.204;5.778;2023-12-28T10:08:06;26.67;;;5.35;;
53519;SDS011;39397;53.204;5.778;2023-12-28T10:10:31;33.72;;;7.07;;
53519;SDS011;39397;53.204;5.778;2023-12-28T10:12:57;26.67;;;5.13;;
53519;SDS011;39397;53.204;5.778;2023-12-28T10:15:23;34.58;;;6.05;;
53519;SDS011;39397;53.204;5.778;2023-12-28T10:17:51;26.13;;;5.13;;
53519;SDS011;39397;53.204;5.778;2023-12-28T10:20:17;32.92;;;6.03;;
53519;SDS011;39397;53.204;5.778;2023-12-28T10:22:43;32.22;;;6.00;;
53519;SDS011;39397;53.204;5.778;2023-12-28T10:25:09;35.92;;;5.65;;
53519;SDS011;39397;53.204;5.778;2023-12-28T10:27:41;30.50;;;5.93;;
53519;SDS011;39397;53.204;5.778;2023-12-28T10:30:08;31.75;;;6.10;;
53519;SDS011;39397;53.204;5.778;2023-12-28T10:32:40;25.85;;;5.93;;
53519;SDS011;39397;53.204;5.778;2023-12-28T10:35:08;32.85;;;5.90;;
53519;SDS011;39397;53.204;5.778;2023-12-28T10:37:35;25.45;;;5.97;;
53519;SDS011;39397;53.204;5.778;2023-12-28T10:40:03;34.60;;;5.60;;
53519;SDS011;39397;53.204;5.778;2023-12-28T10:42:35;33.70;;;6.47;;
53519;SDS011;39397;53.204;5.778;2023-12-28T10:45:11;33.53;;;6.55;;
53519;SDS011;39397;53.204;5.778;2023-12-28T10:47:42;29.02;;;6.13;;
53519;SDS011;39397;53.204;5.778;2023-12-28T10:50:10;34.50;;;6.82;;
53519;SDS011;39397;53.204;5.778;2023-12-28T10:52:36;34.65;;;7.38;;
53519;SDS011;39397;53.204;5.778;2023-12-28T10:58:34;32.05;;;7.60;;
53519;SDS011;39397;53.204;5.778;2023-12-28T11:00:53;36.75;;;8.25;;
53519;SDS011;39397;53.204;5.778;2023-12-28T11:03:23;30.88;;;6.80;;
53519;SDS011;39397;53.204;5.778;2023-12-28T11:05:59;33.97;;;7.72;;
53519;SDS011;39397;53.204;5.778;2023-12-28T11:08:27;27.30;;;5.32;;
53519;SDS011;39397;53.204;5.778;2023-12-28T11:10:55;27.98;;;6.53;;
53519;SDS011;39397;53.204;5.778;2023-12-28T11:13:22;27.48;;;6.00;;
53519;SDS011;39397;53.204;5.778;2023-12-28T11:15:48;33.83;;;6.68;;
53519;SDS011;39397;53.204;5.778;2023-12-28T11:18:16;27.88;;;7.47;;
53519;SDS011;39397;53.204;5.778;2023-12-28T11:20:43;34.90;;;8.43;;
53519;SDS011;39397;53.204;5.778;2023-12-28T11:23:10;34.13;;;6.45;;
53519;SDS011;39397;53.204;5.778;2023-12-28T11:25:37;34.95;;;7.30;;
53519;SDS011;39397;53.204;5.778;2023-12-28T11:28:12;37.92;;;7.72;;
53519;SDS011;39397;53.204;5.778;2023-12-28T11:30:41;34.67;;;7.90;;
53519;SDS011;39397;53.204;5.778;2023-12-28T11:33:09;32.17;;;7.07;;
53519;SDS011;39397;53.204;5.778;2023-12-28T11:35:36;27.88;;;4.97;;
53519;SDS011;39397;53.204;5.778;2023-12-28T11:38:04;26.67;;;6.03;;
53519;SDS011;39397;53.204;5.778;2023-12-28T11:41:07;36.60;;;7.10;;
53519;SDS011;39397;53.204;5.778;2023-12-28T11:43:28;29.50;;;5.47;;
53519;SDS011;39397;53.204;5.778;2023-12-28T11:45:58;30.45;;;6.30;;
53519;SDS011;39397;53.204;5.778;2023-12-28T11:48:25;26.27;;;5.85;;
53519;SDS011;39397;53.204;5.778;2023-12-28T11:50:56;25.90;;;4.90;;
53519;SDS011;39397;53.204;5.778;2023-12-28T11:53:23;35.15;;;5.88;;
53519;SDS011;39397;53.204;5.778;2023-12-28T11:55:50;25.15;;;5.88;;
53519;SDS011;39397;53.204;5.778;2023-12-28T11:58:17;26.25;;;5.15;;
53519;SDS011;39397;53.204;5.778;2023-12-28T12:00:43;28.92;;;5.97;;
53519;SDS011;39397;53.204;5.778;2023-12-28T12:03:09;31.85;;;6.80;;
53519;SDS011;39397;53.204;5.778;2023-12-28T12:05:36;32.22;;;8.13;;
53519;SDS011;39397;53.204;5.778;2023-12-28T12:08:08;36.17;;;8.00;;
53519;SDS011;39397;53.204;5.778;2023-12-28T12:10:36;33.13;;;7.82;;
53519;SDS011;39397;53.204;5.778;2023-12-28T12:13:01;34.03;;;7.10;;
53519;SDS011;39397;53.204;5.778;2023-12-28T12:15:28;44.28;;;10.07;;
53519;SDS011;39397;53.204;5.778;2023-12-28T12:17:55;36.88;;;9.00;;
53519;SDS011;39397;53.204;5.778;2023-12-28T12:20:21;40.38;;;8.05;;
53519;SDS011;39397;53.204;5.778;2023-12-28T12:22:46;38.47;;;6.55;;
53519;SDS011;39397;53.204;5.778;2023-12-28T12:25:14;35.72;;;7.47;;
53519;SDS011;39397;53.204;5.778;2023-12-28T12:27:41;24.52;;;5.50;;
53519;SDS011;39397;53.204;5.778;2023-12-28T12:30:07;38.55;;;6.72;;
53519;SDS011;39397;53.204;5.778;2023-12-28T12:32:33;35.58;;;7.50;;
53519;SDS011;39397;53.204;5.778;2023-12-28T12:35:04;31.67;;;6.90;;
53519;SDS011;39397;53.204;5.778;2023-12-28T12:37:31;35.20;;;7.82;;
53519;SDS011;39397;53.204;5.778;2023-12-28T12:39:57;29.67;;;6.18;;
53519;SDS011;39397;53.204;5.778;2023-12-28T12:42:23;31.30;;;5.78;;
53519;SDS011;39397;53.204;5.778;2023-12-28T12:44:49;34.08;;;6.43;;
53519;SDS011;39397;53.204;5.778;2023-12-28T12:47:17;30.23;;;5.25;;
53519;SDS011;39397;53.204;5.778;2023-12-28T12:49:43;32.65;;;5.82;;
53519;SDS011;39397;53.204;5.778;2023-12-28T12:52:09;34.08;;;5.93;;
53519;SDS011;39397;53.204;5.778;2023-12-28T12:54:35;29.10;;;6.40;;
53519;SDS011;39397;53.204;5.778;2023-12-28T12:57:01;31.80;;;4.97;;
53519;SDS011;39397;53.204;5.778;2023-12-28T12:59:30;29.52;;;5.35;;
53519;SDS011;39397;53.204;5.778;2023-12-28T13:01:56;30.88;;;5.72;;
53519;SDS011;39397;53.204;5.778;2023-12-28T13:04:21;23.98;;;5.43;;
53519;SDS011;39397;53.204;5.778;2023-12-28T13:06:47;32.88;;;5.72;;
53519;SDS011;39397;53.204;5.778;2023-12-28T13:09:13;31.05;;;5.63;;
53519;SDS011;39397;53.204;5.778;2023-12-28T13:11:39;38.10;;;4.93;;
53519;SDS011;39397;53.204;5.778;2023-12-28T13:14:05;27.75;;;5.72;;
53519;SDS011;39397;53.204;5.778;2023-12-28T13:16:31;28.77;;;6.45;;
53519;SDS011;39397;53.204;5.778;2023-12-28T13:18:57;31.77;;;5.78;;
53519;SDS011;39397;53.204;5.778;2023-12-28T13:21:23;35.17;;;5.95;;
53519;SDS011;39397;53.204;5.778;2023-12-28T13:23:48;31.50;;;5.35;;
53519;SDS011;39397;53.204;5.778;2023-12-28T13:26:14;30.00;;;6.28;;
53519;SDS011;39397;53.204;5.778;2023-12-28T13:28:40;35.50;;;6.82;;
53519;SDS011;39397;53.204;5.778;2023-12-28T13:31:07;32.88;;;6.68;;
53519;SDS011;39397;53.204;5.778;2023-12-28T13:33:33;33.90;;;7.85;;
53519;SDS011;39397;53.204;5.778;2023-12-28T13:35:59;29.75;;;7.55;;
53519;SDS011;39397;53.204;5.778;2023-12-28T13:38:24;30.95;;;6.47;;
53519;SDS011;39397;53.204;5.778;2023-12-28T13:40:50;26.85;;;4.78;;
53519;SDS011;39397;53.204;5.778;2023-12-28T13:43:16;33.80;;;6.35;;
53519;SDS011;39397;53.204;5.778;2023-12-28T13:45:42;34.80;;;6.10;;
53519;SDS011;39397;53.204;5.778;2023-12-28T13:48:08;31.67;;;6.13;;
53519;SDS011;39397;53.204;5.778;2023-12-28T13:50:34;30.65;;;5.82;;
53519;SDS011;39397;53.204;5.778;2023-12-28T13:52:59;31.75;;;5.30;;
53519;SDS011;39397;53.204;5.778;2023-12-28T13:55:25;33.75;;;5.97;;
53519;SDS011;39397;53.204;5.778;2023-12-28T13:57:53;34.17;;;6.55;;
53519;SDS011;39397;53.204;5.778;2023-12-28T14:00:19;24.85;;;4.25;;
53519;SDS011;39397;53.204;5.778;2023-12-28T14:02:45;24.33;;;4.72;;
53519;SDS011;39397;53.204;5.778;2023-12-28T14:05:11;25.20;;;5.57;;
53519;SDS011;39397;53.204;5.778;2023-12-28T14:07:37;22.10;;;5.22;;
53519;SDS011;39397;53.204;5.778;2023-12-28T14:10:03;26.05;;;5.07;;
53519;SDS011;39397;53.204;5.778;2023-12-28T14:12:29;26.30;;;4.95;;
53519;SDS011;39397;53.204;5.778;2023-12-28T14:14:55;30.30;;;5.63;;
53519;SDS011;39397;53.204;5.778;2023-12-28T14:17:20;26.17;;;4.65;;
53519;SDS011;39397;53.204;5.778;2023-12-28T14:19:46;29.73;;;5.78;;
53519;SDS011;39397;53.204;5.778;2023-12-28T14:22:12;26.98;;;5.78;;
53519;SDS011;39397;53.204;5.778;2023-12-28T14:24:39;25.27;;;3.65;;
53519;SDS011;39397;53.204;5.778;2023-12-28T14:27:05;29.10;;;5.22;;
53519;SDS011;39397;53.204;5.778;2023-12-28T14:29:31;21.33;;;3.95;;
53519;SDS011;39397;53.204;5.778;2023-12-28T14:31:57;24.38;;;5.35;;
53519;SDS011;39397;53.204;5.778;2023-12-28T14:34:24;29.30;;;5.60;;
53519;SDS011;39397;53.204;5.778;2023-12-28T14:36:52;29.55;;;5.50;;
53519;SDS011;39397;53.204;5.778;2023-12-28T14:39:18;26.60;;;5.05;;
53519;SDS011;39397;53.204;5.778;2023-12-28T14:41:44;32.63;;;7.28;;